createdAt,value
2019-01-05T00:01:58.481Z,0.80
2019-01-05T00:07:23.378Z,0.80
2019-01-05T00:10:09.548Z,0.80
2019-01-05T00:15:43.688Z,0.80
2019-01-05T00:26:06.564Z,0.80
2019-01-05T00:28:37.373Z,0.70
2019-01-05T00:31:10.458Z,0.80
2019-01-05T00:36:36.609Z,0.80
2019-01-05T00:39:20.227Z,0.80
2019-01-05T00:42:07.545Z,0.80
2019-01-05T00:44:40.804Z,0.80
2019-01-05T00:49:53.733Z,0.80
2019-01-05T00:52:32.929Z,0.80
2019-01-05T00:55:05.683Z,0.80
2019-01-05T01:00:23.017Z,0.80
2019-01-05T01:02:58.971Z,0.80
2019-01-05T01:05:34.710Z,0.90
2019-01-05T01:08:20.473Z,0.90
2019-01-05T01:11:06.645Z,0.90
2019-01-05T01:13:42.877Z,0.90
2019-01-05T01:18:57.470Z,0.90
2019-01-05T01:21:28.260Z,0.90
2019-01-05T01:24:15.491Z,0.90
2019-01-05T01:32:08.858Z,0.90
2019-01-05T01:37:39.462Z,1.00
2019-01-05T01:42:44.968Z,1.00
2019-01-05T01:45:22.591Z,1.00
2019-01-05T01:47:56.400Z,1.00
2019-01-05T01:50:27.494Z,1.00
2019-01-05T01:53:05.976Z,1.00
2019-01-05T01:55:46.979Z,1.00
2019-01-05T01:58:18.157Z,1.00
2019-01-05T02:00:50.772Z,1.00
2019-01-05T02:03:33.012Z,1.00
2019-01-05T02:06:04.577Z,1.00
2019-01-05T02:08:53.901Z,1.00
2019-01-05T02:11:26.100Z,1.00
2019-01-05T02:14:08.020Z,1.00
2019-01-05T02:16:41.157Z,1.00
2019-01-05T02:19:13.625Z,1.00
2019-01-05T02:24:57.675Z,1.00
2019-01-05T02:30:31.804Z,0.90
2019-01-05T02:33:30.214Z,1.00
2019-01-05T02:36:08.897Z,1.00
2019-01-05T02:42:03.338Z,1.00
2019-01-05T02:45:12.152Z,1.00
2019-01-05T02:48:13.520Z,1.00
2019-01-05T02:54:15.930Z,1.00
2019-01-05T03:00:24.596Z,1.00
2019-01-05T03:03:03.393Z,1.00
2019-01-05T03:06:04.720Z,1.00
2019-01-05T03:12:11.788Z,1.00
2019-01-05T03:15:13.330Z,1.00
2019-01-05T03:18:24.882Z,1.00
2019-01-05T03:24:12.226Z,1.00
2019-01-05T03:27:06.140Z,0.90
2019-01-05T03:29:57.811Z,0.90
2019-01-05T03:32:52.743Z,0.90
2019-01-05T03:35:45.974Z,0.90
2019-01-05T03:38:47.294Z,0.90
2019-01-05T03:42:03.689Z,0.90
2019-01-05T03:44:48.567Z,0.90
2019-01-05T03:56:15.625Z,0.90
2019-01-05T04:02:10.304Z,0.90
2019-01-05T04:07:57.447Z,0.90
2019-01-05T04:11:08.962Z,0.90
2019-01-05T04:13:56.575Z,0.90
2019-01-05T04:19:41.879Z,0.90
2019-01-05T04:22:52.510Z,0.90
2019-01-05T04:29:05.424Z,0.90
2019-01-05T04:37:03.337Z,0.90
2019-01-05T04:40:06.470Z,0.80
2019-01-05T04:43:03.292Z,0.90
2019-01-05T04:46:13.865Z,0.90
2019-01-05T04:49:13.855Z,0.90
2019-01-05T04:52:20.928Z,0.90
2019-01-05T04:55:20.878Z,0.90
2019-01-05T04:58:16.268Z,1.00
2019-01-05T05:01:14.485Z,1.00
2019-01-05T05:06:49.772Z,1.00
2019-01-05T05:09:37.051Z,1.00
2019-01-05T05:12:37.945Z,1.00
2019-01-05T05:15:16.701Z,1.00
2019-01-05T05:21:13.407Z,0.90
2019-01-05T05:35:10.149Z,0.80
2019-01-05T05:38:08.426Z,0.80
2019-01-05T05:43:40.857Z,0.80
2019-01-05T05:49:19.053Z,0.80
2019-01-05T05:57:49.874Z,0.80
2019-01-05T06:07:11.245Z,0.80
2019-01-05T06:16:08.409Z,0.80
2019-01-05T06:21:27.317Z,0.80
2019-01-05T06:32:33.340Z,0.80
2019-01-05T06:40:47.982Z,0.80
2019-01-05T06:43:52.303Z,0.80
2019-01-05T06:46:55.427Z,0.80
2019-01-05T06:49:49.558Z,0.80
2019-01-05T06:55:55.238Z,0.80
2019-01-05T07:01:50.905Z,0.80
2019-01-05T07:04:55.412Z,0.80
2019-01-05T07:07:46.243Z,0.80
2019-01-05T07:10:46.848Z,0.80
2019-01-05T07:13:46.563Z,0.80
2019-01-05T07:24:42.716Z,0.80
2019-01-05T07:28:05.505Z,0.80
2019-01-05T07:30:55.136Z,0.80
2019-01-05T07:33:51.972Z,0.80
2019-01-05T07:36:50.606Z,0.80
2019-01-05T07:39:32.539Z,0.80
2019-01-05T07:42:19.870Z,0.80
2019-01-05T07:45:15.892Z,0.80
2019-01-05T07:51:03.941Z,0.80
2019-01-05T07:54:00.947Z,0.80
2019-01-05T07:56:57.621Z,0.80
2019-01-05T07:59:56.100Z,0.80
2019-01-05T08:02:56.790Z,0.80
2019-01-05T08:05:32.969Z,0.80
2019-01-05T08:08:46.400Z,0.80
2019-01-05T08:11:50.756Z,0.80
2019-01-05T08:20:42.381Z,0.80
2019-01-05T08:23:42.381Z,0.80
2019-01-05T08:26:48.146Z,0.80
2019-01-05T08:29:44.069Z,0.80
2019-01-05T08:32:50.024Z,0.80
2019-01-05T08:35:40.958Z,0.90
2019-01-05T08:38:40.920Z,0.90
2019-01-05T08:41:49.711Z,0.90
2019-01-05T08:44:54.611Z,0.90
2019-01-05T08:50:34.534Z,1.00
2019-01-05T08:53:32.484Z,1.00
2019-01-05T08:56:38.985Z,1.00
2019-01-05T08:59:46.489Z,1.00
2019-01-05T09:02:41.755Z,1.00
2019-01-05T09:05:46.711Z,1.00
2019-01-05T09:08:28.492Z,1.00
2019-01-05T09:11:16.316Z,1.00
2019-01-05T09:14:34.299Z,1.00
2019-01-05T09:17:27.620Z,1.10
2019-01-05T09:20:30.245Z,1.00
2019-01-05T09:23:31.478Z,1.00
2019-01-05T09:29:21.025Z,1.00
2019-01-05T09:32:18.941Z,1.00
2019-01-05T09:35:23.281Z,1.10
2019-01-05T09:38:44.626Z,1.00
2019-01-05T09:41:48.434Z,1.00
2019-01-05T09:50:07.724Z,1.00
2019-01-05T09:53:01.170Z,1.10
2019-01-05T09:58:38.159Z,1.10
2019-01-05T10:01:47.292Z,1.10
2019-01-05T10:04:43.702Z,1.10
2019-01-05T10:07:34.506Z,1.10
2019-01-05T10:10:19.116Z,1.10
2019-01-05T10:18:40.597Z,1.10
2019-01-05T10:21:54.970Z,1.10
2019-01-05T10:24:48.285Z,1.10
2019-01-05T10:27:49.700Z,1.10
2019-01-05T10:30:37.755Z,1.10
2019-01-05T10:33:40.326Z,1.20
2019-01-05T10:36:59.898Z,1.20
2019-01-05T10:40:02.841Z,1.20
2019-01-05T10:43:04.269Z,1.20
2019-01-05T10:46:01.372Z,1.20
2019-01-05T10:48:52.165Z,1.20
2019-01-05T10:51:56.337Z,1.20
2019-01-05T10:55:05.014Z,1.30
2019-01-05T10:58:14.956Z,1.30
2019-01-05T11:01:24.850Z,1.30
2019-01-05T11:04:32.151Z,1.30
2019-01-05T11:07:11.055Z,1.30
2019-01-05T11:09:56.229Z,1.30
2019-01-05T11:13:00.544Z,1.30
2019-01-05T11:21:37.525Z,1.40
2019-01-05T11:24:40.364Z,1.40
2019-01-05T11:27:43.472Z,1.40
2019-01-05T11:30:22.234Z,1.40
2019-01-05T11:33:11.795Z,1.40
2019-01-05T11:36:08.761Z,1.40
2019-01-05T11:38:59.204Z,1.40
2019-01-05T11:44:59.507Z,1.50
2019-01-05T11:48:05.619Z,1.50
2019-01-05T11:51:08.186Z,1.60
2019-01-05T11:59:51.744Z,1.70
2019-01-05T12:02:51.432Z,1.80
2019-01-05T12:05:50.747Z,1.90
2019-01-05T12:11:36.140Z,2.00
2019-01-05T12:14:55.147Z,2.10
2019-01-05T12:17:56.689Z,2.20
2019-01-05T12:23:18.521Z,2.30
2019-01-05T12:26:34.614Z,2.40
2019-01-05T12:29:56.976Z,2.40
2019-01-05T12:32:50.652Z,2.30
2019-01-05T12:42:03.521Z,2.30
2019-01-05T12:44:42.049Z,2.40
2019-01-05T12:47:36.272Z,2.40
2019-01-05T12:59:07.257Z,2.50
2019-01-05T13:02:11.428Z,2.50
2019-01-05T13:04:56.460Z,2.50
2019-01-05T13:10:34.805Z,2.40
2019-01-05T13:13:40.677Z,2.40
2019-01-05T13:22:13.633Z,2.40
2019-01-05T13:33:53.593Z,2.50
2019-01-05T13:36:44.965Z,2.50
2019-01-05T13:40:08.837Z,2.60
2019-01-05T13:43:05.469Z,2.60
2019-01-05T13:46:12.865Z,2.60
2019-01-05T13:51:55.618Z,2.60
2019-01-05T13:59:53.500Z,2.60
2019-01-05T14:02:32.426Z,2.50
2019-01-05T14:05:14.549Z,2.50
2019-01-05T14:07:44.660Z,2.50
2019-01-05T14:10:20.592Z,2.50
2019-01-05T14:12:50.714Z,2.50
2019-01-05T14:20:45.348Z,2.50
2019-01-05T14:31:15.697Z,2.50
2019-01-05T14:33:57.533Z,2.50
2019-01-05T14:36:30.368Z,2.50
2019-01-05T14:39:12.231Z,2.60
2019-01-05T14:41:45.752Z,2.60
2019-01-05T14:44:18.574Z,2.60
2019-01-05T14:49:51.882Z,2.60
2019-01-05T14:52:27.854Z,2.60
2019-01-05T14:57:30.677Z,2.60
2019-01-05T15:00:09.625Z,2.60
2019-01-05T15:02:42.350Z,2.60
2019-01-05T15:05:28.989Z,2.60
2019-01-05T15:08:01.462Z,2.70
2019-01-05T15:10:34.160Z,2.60
2019-01-05T15:13:04.219Z,2.70
2019-01-05T15:18:07.065Z,2.60
2019-01-05T15:31:16.995Z,2.60
2019-01-05T15:33:49.746Z,2.60
2019-01-05T15:39:10.933Z,2.60
2019-01-05T15:41:49.498Z,2.60
2019-01-05T15:44:35.379Z,2.60
2019-01-05T15:52:38.720Z,2.60
2019-01-05T15:55:14.661Z,2.60
2019-01-05T15:58:00.993Z,2.60
2019-01-05T16:00:31.040Z,2.60
2019-01-05T16:03:16.913Z,2.60
2019-01-05T16:05:46.969Z,2.60
2019-01-05T16:08:25.792Z,2.60
2019-01-05T16:11:01.872Z,2.60
2019-01-05T16:13:35.026Z,2.60
2019-01-05T16:27:17.916Z,2.60
2019-01-05T16:29:50.724Z,2.60
2019-01-05T16:32:37.046Z,2.60
2019-01-05T16:35:16.578Z,2.70
2019-01-05T16:40:31.091Z,2.70
2019-01-05T16:43:17.842Z,2.60
2019-01-05T16:51:05.531Z,2.50
2019-01-05T17:04:31.493Z,2.60
2019-01-05T17:07:07.439Z,2.60
2019-01-05T17:09:37.568Z,2.60
2019-01-05T17:12:07.636Z,2.60
2019-01-05T17:14:46.545Z,2.60
2019-01-05T17:19:55.514Z,2.60
2019-01-05T17:22:25.615Z,2.60
2019-01-05T17:30:43.649Z,2.60
2019-01-05T17:33:29.735Z,2.50
2019-01-05T17:41:39.337Z,2.40
2019-01-05T17:44:12.070Z,2.40
2019-01-05T17:46:51.237Z,2.40
2019-01-05T17:52:19.652Z,2.40
2019-01-05T18:00:01.284Z,2.40
2019-01-05T18:02:34.120Z,2.40
2019-01-05T18:10:28.821Z,2.40
2019-01-05T18:13:01.871Z,2.40
2019-01-05T18:15:38.210Z,2.40
2019-01-05T18:18:08.585Z,2.40
2019-01-05T18:20:47.676Z,2.50
2019-01-05T18:23:26.850Z,2.50
2019-01-05T18:28:55.077Z,2.50
2019-01-05T18:31:25.304Z,2.50
2019-01-05T18:34:11.537Z,2.50
2019-01-05T18:41:47.668Z,2.50
2019-01-05T18:47:12.860Z,2.60
2019-01-05T18:54:56.691Z,2.50
2019-01-05T19:00:08.606Z,2.50
2019-01-05T19:05:26.270Z,2.50
2019-01-05T19:07:56.340Z,2.50
2019-01-05T19:10:42.430Z,2.40
2019-01-05T19:13:24.370Z,2.40
2019-01-05T19:16:02.981Z,2.40
2019-01-05T19:21:14.356Z,2.40
2019-01-05T19:23:44.419Z,2.40
2019-01-05T19:26:14.558Z,2.40
2019-01-05T19:31:20.172Z,2.40
2019-01-05T19:33:58.908Z,2.40
2019-01-05T19:36:37.538Z,2.40
2019-01-05T19:39:24.360Z,2.40
2019-01-05T19:44:27.157Z,2.50
2019-01-05T19:47:09.043Z,2.50
2019-01-05T19:52:41.044Z,2.50
2019-01-05T19:55:27.342Z,2.50
2019-01-05T19:58:13.471Z,2.50
2019-01-05T20:03:47.766Z,2.50
2019-01-05T20:06:26.333Z,2.50
2019-01-05T20:09:12.654Z,2.50
2019-01-05T20:11:54.705Z,2.50
2019-01-05T20:17:19.512Z,2.50
2019-01-05T20:22:44.638Z,2.50
2019-01-05T20:25:23.781Z,2.50
2019-01-05T20:30:26.277Z,2.50
2019-01-05T20:32:56.369Z,2.50
2019-01-05T20:38:01.965Z,2.40
2019-01-05T20:40:43.874Z,2.40
2019-01-05T20:43:14.234Z,2.40
2019-01-05T20:46:02.517Z,2.40
2019-01-05T20:48:44.144Z,2.50
2019-01-05T20:54:04.586Z,2.50
2019-01-05T20:59:12.798Z,2.40
2019-01-05T21:04:21.380Z,2.50
2019-01-05T21:06:51.441Z,2.50
2019-01-05T21:09:29.921Z,2.50
2019-01-05T21:12:06.386Z,2.50
2019-01-05T21:20:06.790Z,2.50
2019-01-05T21:22:39.601Z,2.50
2019-01-05T21:28:07.454Z,2.50
2019-01-05T21:30:53.612Z,2.50
2019-01-05T21:33:25.866Z,2.40
2019-01-05T21:36:01.174Z,2.40
2019-01-05T21:38:31.522Z,2.50
2019-01-05T21:41:17.726Z,2.40
2019-01-05T21:43:48.091Z,2.50
2019-01-05T21:51:47.612Z,2.50
2019-01-05T21:59:29.034Z,2.50
2019-01-05T22:01:59.212Z,2.50
2019-01-05T22:04:35.016Z,2.50
2019-01-05T22:07:21.722Z,2.50
2019-01-05T22:12:40.093Z,2.40
2019-01-05T22:15:15.985Z,2.50
2019-01-05T22:18:02.440Z,2.50
2019-01-05T22:20:38.560Z,2.50
2019-01-05T22:23:08.632Z,2.50
2019-01-05T22:25:44.173Z,2.50
2019-01-05T22:28:23.173Z,2.50
2019-01-05T22:30:56.176Z,2.50
2019-01-05T22:33:31.650Z,2.50
2019-01-05T22:36:08.921Z,2.50
2019-01-05T22:38:38.978Z,2.40
2019-01-05T22:41:17.933Z,2.50
2019-01-05T22:43:56.711Z,2.50
2019-01-05T22:48:56.534Z,2.50
2019-01-05T22:51:26.862Z,2.60
2019-01-05T22:54:02.829Z,2.50
2019-01-05T22:59:11.814Z,2.50
2019-01-05T23:04:42.473Z,2.50
2019-01-05T23:07:12.534Z,2.50
2019-01-05T23:15:09.726Z,2.50
2019-01-05T23:17:55.747Z,2.50
2019-01-05T23:20:34.681Z,2.50
2019-01-05T23:23:07.222Z,2.50
2019-01-05T23:28:28.986Z,2.50
2019-01-05T23:31:01.872Z,2.50
2019-01-05T23:33:31.966Z,2.50
2019-01-05T23:36:02.029Z,2.50
2019-01-05T23:38:50.430Z,2.50
2019-01-05T23:41:25.906Z,2.50
2019-01-05T23:43:58.925Z,2.50
2019-01-05T23:52:03.423Z,2.40
